APL Thailand — WCX8882 — position and weather

sailwx.info

Track history (hours):
 
Tides and Currents Weather Stations Pressure Air Temp Water Temp Dewpoint Dewpoint Depression Visibility Wind Speed Wind Dir Waves Ship Positions

APL Thailand

Owner: APL Maritime, Ltd, Rockville, MD. More information available from US FCC via Universal Licensing System and Coast Guard Vessel Documentation Center.

Last reported at 2017-Nov-20 00:00 UTC. Time now 2017-Nov-21 15:23 UTC.
Position N 31°18' E 131°42'.

Length 276.3 m; beam 40 m; draft 14 m.

Type: Cargo ship. MMSI: 368686000.

Wind from 350 at 15 knots

Barometer 1023.3 mb
Air temperature 15.5 ° C
Visibility: greater than 10.8 NM
Dewpoint 7.7 ° C
Water temperature 22.0 ° C

Date/timePositionNaut miles runAvg speedWind from/ knotsBaromVisibWave heightAir tempDewpointWater temp
2017-Nov-20 00:00N 31°18' E 131°42'44313.3 350 / 151023.310.8 15.5 7.722.0
2017-Nov-18 14:41N 34°42' E 139°31'415.6
2017-Nov-18 14:24N 34°46' E 139°33'816.1
2017-Nov-18 13:56N 34°53' E 139°37'716.7
2017-Nov-18 13:30N 34°60' E 139°40'816.3
2017-Nov-18 13:00N 35°07' E 139°44'713.9
2017-Nov-18 12:30N 35°14' E 139°46'612.9
2017-Nov-18 12:00N 35°20' E 139°43'713.4
2017-Nov-18 11:31N 35°26' E 139°42'1 1.7
2017-Nov-18 11:01N 35°26' E 139°41'0 0.0
2017-Nov-18 10:30N 35°26' E 139°41'0 0.0
2017-Nov-18 10:00N 35°26' E 139°41'0 0.0
2017-Nov-18 09:30N 35°26' E 139°41'0 0.0
2017-Nov-18 08:57N 35°26' E 139°41'0 0.0
2017-Nov-18 08:30N 35°26' E 139°41'0 0.0
2017-Nov-18 07:57N 35°26' E 139°41'0 0.0
2017-Nov-18 07:30N 35°26' E 139°41'0 0.0
2017-Nov-18 07:00N 35°26' E 139°41'0 0.0
2017-Nov-18 06:30N 35°26' E 139°41'0 0.1
2017-Nov-18 06:00N 35°26' E 139°41'0 0.1
2017-Nov-18 05:30N 35°26' E 139°41'0 0.0
2017-Nov-18 05:00N 35°26' E 139°41'0 0.0
2017-Nov-18 04:30N 35°26' E 139°41'0 0.1
2017-Nov-18 04:00N 35°26' E 139°41'0 0.0
2017-Nov-18 03:30N 35°26' E 139°41'0 0.1
2017-Nov-18 03:00N 35°26' E 139°41'0 0.0
2017-Nov-18 02:30N 35°26' E 139°41'0 0.0
2017-Nov-18 02:00N 35°26' E 139°41'0 0.0
2017-Nov-18 01:30N 35°26' E 139°41'0 0.0
2017-Nov-18 01:00N 35°26' E 139°41'0 0.1
2017-Nov-18 00:30N 35°26' E 139°41'0 0.0
2017-Nov-18 00:00N 35°26' E 139°41'0 0.1
2017-Nov-17 23:30N 35°26' E 139°41'0 0.7
2017-Nov-17 23:00N 35°27' E 139°41'3 5.1
2017-Nov-17 22:30N 35°25' E 139°44'2 4.9
2017-Nov-17 22:00N 35°23' E 139°43'510.2
2017-Nov-17 21:30N 35°18' E 139°45'5 9.4
2017-Nov-17 21:00N 35°14' E 139°47'5 9.1
2017-Nov-17 20:30N 35°09' E 139°47'611.0
2017-Nov-17 20:00N 35°04' E 139°45'1017.1
2017-Nov-17 19:26N 34°54' E 139°45'817.9
2017-Nov-17 19:00N 34°49' E 139°52'918.6
2017-Nov-17 18:30N 34°52' E 140°03'2319.6
2017-Nov-17 17:19N 35°04' E 140°27'32919.0
2017-Nov-17 00:00N 38°42' E 145°36'45919.1 290 / 221019.110.8 10.0-1.612.0
2017-Nov-16 00:00N 43°30' E 153°30'33918.8 070 / 301007.0 5.4 7.2 4.2 6.0
2017-Nov-15 06:00N 45°54' E 160°42'11318.9 170 / 301020.5 5.4 10.0 5.7 8.0
2017-Nov-15 00:00N 46°06' E 163°24'33718.7 190 / 201027.710.8 9.0 1.8 8.0
2017-Nov-14 06:00N 46°42' E 171°30'12621.1 280 / 161015.010.8 8.0 3.3 8.0
2017-Nov-14 00:00N 47°12' E 174°30'47419.7 280 / 221009.910.8 8.3 2.9 8.0
2017-Nov-13 00:00N 48°30' W 173°54'35819.9 140 / 231024.6 2.2 10.0 6.4 7.0
2017-Nov-12 06:00N 48°36' W 164°54'12721.2 320 / 101038.010.8 8.0 3.3 9.0
2017-Nov-12 00:00N 48°30' W 161°42'12020.0 360 / 161034.610.8 8.1 6.8 9.0
2017-Nov-11 18:00N 48°18' W 158°42'20934.8 320 / 261032.0 5.4 8.5 3.9 9.0
2017-Nov-11 12:00N 48°00' W 153°30'50 8.4 1026.810.8 9.2 4.710.0
2017-Nov-11 06:00N 47°30' W 152°30'12721.2 320 / 321026.010.8 8.0 0.510.0
2017-Nov-11 00:00N 47°12' W 149°24'13222.0 330 / 251022.110.8 8.9 0.811.0
2017-Nov-10 18:00N 46°36' W 146°18'38321.3 300 / 221022.010.8 10.0 1.911.0
2017-Nov-10 00:00N 44°30' W 137°42'   330 / 281005.9 5.4 13.7 7.914.0
Track history (hours):
 
Tides and Currents Weather Stations Pressure Air Temp Water Temp Dewpoint Dewpoint Depression Visibility Wind Speed Wind Dir Waves Ship Positions

APL Thailand

Owner: APL Maritime, Ltd, Rockville, MD. More information available from US FCC via Universal Licensing System and Coast Guard Vessel Documentation Center.

Last reported at 2017-Nov-20 00:00 UTC. Time now 2017-Nov-21 15:23 UTC.
Position N 31°18' E 131°42'.

Length 276.3 m; beam 40 m; draft 14 m.

Type: Cargo ship. MMSI: 368686000.

Wind from 350 at 15 knots

Barometer 1023.3 mb
Air temperature 15.5 ° C
Visibility: greater than 10.8 NM
Dewpoint 7.7 ° C
Water temperature 22.0 ° C

Date/timePositionNaut miles runAvg speedWind from/ knotsBaromVisibWave heightAir tempDewpointWater temp
2017-Nov-20 00:00N 31°18' E 131°42'44313.3 350 / 151023.310.8 15.5 7.722.0
2017-Nov-18 14:41N 34°42' E 139°31'415.6
2017-Nov-18 14:24N 34°46' E 139°33'816.1
2017-Nov-18 13:56N 34°53' E 139°37'716.7
2017-Nov-18 13:30N 34°60' E 139°40'816.3
2017-Nov-18 13:00N 35°07' E 139°44'713.9
2017-Nov-18 12:30N 35°14' E 139°46'612.9
2017-Nov-18 12:00N 35°20' E 139°43'713.4
2017-Nov-18 11:31N 35°26' E 139°42'1 1.7
2017-Nov-18 11:01N 35°26' E 139°41'0 0.0
2017-Nov-18 10:30N 35°26' E 139°41'0 0.0
2017-Nov-18 10:00N 35°26' E 139°41'0 0.0
2017-Nov-18 09:30N 35°26' E 139°41'0 0.0
2017-Nov-18 08:57N 35°26' E 139°41'0 0.0
2017-Nov-18 08:30N 35°26' E 139°41'0 0.0
2017-Nov-18 07:57N 35°26' E 139°41'0 0.0
2017-Nov-18 07:30N 35°26' E 139°41'0 0.0
2017-Nov-18 07:00N 35°26' E 139°41'0 0.0
2017-Nov-18 06:30N 35°26' E 139°41'0 0.1
2017-Nov-18 06:00N 35°26' E 139°41'0 0.1
2017-Nov-18 05:30N 35°26' E 139°41'0 0.0
2017-Nov-18 05:00N 35°26' E 139°41'0 0.0
2017-Nov-18 04:30N 35°26' E 139°41'0 0.1
2017-Nov-18 04:00N 35°26' E 139°41'0 0.0
2017-Nov-18 03:30N 35°26' E 139°41'0 0.1
2017-Nov-18 03:00N 35°26' E 139°41'0 0.0
2017-Nov-18 02:30N 35°26' E 139°41'0 0.0
2017-Nov-18 02:00N 35°26' E 139°41'0 0.0
2017-Nov-18 01:30N 35°26' E 139°41'0 0.0
2017-Nov-18 01:00N 35°26' E 139°41'0 0.1
2017-Nov-18 00:30N 35°26' E 139°41'0 0.0
2017-Nov-18 00:00N 35°26' E 139°41'0 0.1
2017-Nov-17 23:30N 35°26' E 139°41'0 0.7
2017-Nov-17 23:00N 35°27' E 139°41'3 5.1
2017-Nov-17 22:30N 35°25' E 139°44'2 4.9
2017-Nov-17 22:00N 35°23' E 139°43'510.2
2017-Nov-17 21:30N 35°18' E 139°45'5 9.4
2017-Nov-17 21:00N 35°14' E 139°47'5 9.1
2017-Nov-17 20:30N 35°09' E 139°47'611.0
2017-Nov-17 20:00N 35°04' E 139°45'1017.1
2017-Nov-17 19:26N 34°54' E 139°45'817.9
2017-Nov-17 19:00N 34°49' E 139°52'918.6
2017-Nov-17 18:30N 34°52' E 140°03'2319.6
2017-Nov-17 17:19N 35°04' E 140°27'32919.0
2017-Nov-17 00:00N 38°42' E 145°36'45919.1 290 / 221019.110.8 10.0-1.612.0
2017-Nov-16 00:00N 43°30' E 153°30'33918.8 070 / 301007.0 5.4 7.2 4.2 6.0
2017-Nov-15 06:00N 45°54' E 160°42'11318.9 170 / 301020.5 5.4 10.0 5.7 8.0
2017-Nov-15 00:00N 46°06' E 163°24'33718.7 190 / 201027.710.8 9.0 1.8 8.0
2017-Nov-14 06:00N 46°42' E 171°30'12621.1 280 / 161015.010.8 8.0 3.3 8.0
2017-Nov-14 00:00N 47°12' E 174°30'47419.7 280 / 221009.910.8 8.3 2.9 8.0
2017-Nov-13 00:00N 48°30' W 173°54'35819.9 140 / 231024.6 2.2 10.0 6.4 7.0
2017-Nov-12 06:00N 48°36' W 164°54'12721.2 320 / 101038.010.8 8.0 3.3 9.0
2017-Nov-12 00:00N 48°30' W 161°42'12020.0 360 / 161034.610.8 8.1 6.8 9.0
2017-Nov-11 18:00N 48°18' W 158°42'20934.8 320 / 261032.0 5.4 8.5 3.9 9.0
2017-Nov-11 12:00N 48°00' W 153°30'50 8.4 1026.810.8 9.2 4.710.0
2017-Nov-11 06:00N 47°30' W 152°30'12721.2 320 / 321026.010.8 8.0 0.510.0
2017-Nov-11 00:00N 47°12' W 149°24'13222.0 330 / 251022.110.8 8.9 0.811.0
2017-Nov-10 18:00N 46°36' W 146°18'38321.3 300 / 221022.010.8 10.0 1.911.0
2017-Nov-10 00:00N 44°30' W 137°42'   330 / 281005.9 5.4 13.7 7.914.0

Dump ship's entire track history